createdAt,value
2019-02-15T00:00:14.258Z,28.1
2019-02-15T00:01:04.041Z,28.1
2019-02-15T00:01:54.613Z,28.1
2019-02-15T00:02:43.085Z,28.1
2019-02-15T00:03:35.040Z,28.1
2019-02-15T00:04:24.825Z,28.1
2019-02-15T00:05:14.078Z,28.1
2019-02-15T00:06:04.955Z,28.1
2019-02-15T00:06:54.138Z,28.1
2019-02-15T00:07:45.075Z,28.1
2019-02-15T00:08:35.075Z,28.1
2019-02-15T00:09:23.842Z,28.1
2019-02-15T00:10:14.910Z,28.1
2019-02-15T00:11:04.432Z,28.1
2019-02-15T00:11:54.524Z,28.1
2019-02-15T00:12:45.110Z,28
2019-02-15T00:13:35.405Z,28
2019-02-15T00:14:25.498Z,28
2019-02-15T00:15:15.530Z,28
2019-02-15T00:16:05.388Z,28
2019-02-15T00:16:55.404Z,28
2019-02-15T00:17:45.422Z,28
2019-02-15T00:18:35.656Z,28
2019-02-15T00:19:25.599Z,28
2019-02-15T00:20:15.592Z,28
2019-02-15T00:21:06.207Z,28
2019-02-15T00:21:55.419Z,28
2019-02-15T00:22:45.497Z,27.9
2019-02-15T00:23:35.529Z,27.9
2019-02-15T00:24:25.884Z,27.9
2019-02-15T00:25:15.941Z,27.9
2019-02-15T00:26:05.991Z,27.9
2019-02-15T00:26:56.096Z,27.9
2019-02-15T00:27:45.556Z,27.9
2019-02-15T00:28:36.451Z,27.9
2019-02-15T00:29:26.786Z,27.9
2019-02-15T00:30:16.278Z,27.9
2019-02-15T00:31:05.801Z,27.9
2019-02-15T00:31:56.724Z,27.9
2019-02-15T00:32:46.227Z,27.9
2019-02-15T00:33:35.953Z,27.9
2019-02-15T00:34:26.888Z,27.9
2019-02-15T00:35:16.626Z,27.9
2019-02-15T00:36:06.972Z,27.9
2019-02-15T00:37:47.074Z,27.9
2019-02-15T00:38:36.545Z,27.9
2019-02-15T00:45:16.492Z,27.8
2019-02-15T00:46:06.805Z,27.8
2019-02-15T00:46:57.415Z,27.8
2019-02-15T00:47:47.178Z,27.8
2019-02-15T00:48:36.986Z,27.8
2019-02-15T00:49:27.378Z,27.8
2019-02-15T00:50:17.975Z,27.8
2019-02-15T00:51:07.159Z,27.8
2019-02-15T00:51:57.487Z,27.8
2019-02-15T00:52:47.297Z,27.8
2019-02-15T00:53:37.906Z,27.8
2019-02-15T00:54:27.920Z,27.8
2019-02-15T00:55:18.562Z,27.7
2019-02-15T00:56:08.332Z,27.7
2019-02-15T00:56:58.371Z,27.7
2019-02-15T00:57:47.932Z,27.8
2019-02-15T00:58:38.472Z,27.8
2019-02-15T00:59:28.934Z,27.7
2019-02-15T01:00:17.757Z,27.8
2019-02-15T01:01:08.996Z,27.7
2019-02-15T01:01:57.619Z,27.7
2019-02-15T01:02:48.489Z,27.6
2019-02-15T01:03:38.329Z,27.7
2019-02-15T01:04:28.629Z,27.6
2019-02-15T01:05:18.774Z,27.6
2019-02-15T01:06:08.448Z,27.6
2019-02-15T01:06:58.773Z,27.6
2019-02-15T01:07:48.919Z,27.6
2019-02-15T01:08:38.889Z,27.6
2019-02-15T01:09:27.979Z,27.6
2019-02-15T01:10:18.781Z,27.6
2019-02-15T01:11:08.621Z,27.6
2019-02-15T01:11:59.141Z,27.6
2019-02-15T01:12:48.638Z,27.6
2019-02-15T01:13:38.700Z,27.6
2019-02-15T01:14:29.296Z,27.6
2019-02-15T01:15:19.623Z,27.6
2019-02-15T01:16:09.227Z,27.6
2019-02-15T01:16:59.463Z,27.6
2019-02-15T01:17:49.538Z,27.6
2019-02-15T01:18:39.863Z,27.6
2019-02-15T01:19:29.613Z,27.6
2019-02-15T01:20:19.979Z,27.6
2019-02-15T01:21:10.025Z,27.5
2019-02-15T01:22:00.358Z,27.5
2019-02-15T01:22:49.348Z,27.5
2019-02-15T01:23:39.938Z,27.5
2019-02-15T01:24:29.720Z,27.5
2019-02-15T01:25:20.310Z,27.5
2019-02-15T01:26:09.585Z,27.5
2019-02-15T01:26:59.873Z,27.5
2019-02-15T01:27:50.197Z,27.5
2019-02-15T01:28:40.307Z,27.4
2019-02-15T01:29:30.045Z,27.5
2019-02-15T01:30:20.132Z,27.4
2019-02-15T01:31:10.448Z,27.4
2019-02-15T01:32:00.783Z,27.4
2019-02-15T01:32:50.860Z,27.4
2019-02-15T01:33:40.305Z,27.4
2019-02-15T01:34:30.995Z,27.4
2019-02-15T01:35:20.445Z,27.4
2019-02-15T01:36:10.542Z,27.4
2019-02-15T01:37:01.120Z,27.4
2019-02-15T01:37:51.182Z,27.4
2019-02-15T01:38:41.315Z,27.4
2019-02-15T01:39:31.029Z,27.4
2019-02-15T01:40:20.795Z,27.4
2019-02-15T01:41:11.384Z,27.4
2019-02-15T01:42:00.919Z,27.4
2019-02-15T01:42:50.934Z,27.4
2019-02-15T01:43:46.187Z,27.4
2019-02-15T01:44:31.419Z,27.4
2019-02-15T01:45:20.715Z,27.4
2019-02-15T01:46:11.715Z,27.4
2019-02-15T01:47:01.899Z,27.3
2019-02-15T01:47:51.051Z,27.4
2019-02-15T01:48:41.366Z,27.4
2019-02-15T01:49:31.501Z,27.3
2019-02-15T01:50:21.213Z,27.3
2019-02-15T01:51:11.825Z,27.3
2019-02-15T01:52:01.961Z,27.3
2019-02-15T01:52:52.286Z,27.3
2019-02-15T01:53:42.078Z,27.3
2019-02-15T01:54:32.346Z,27.3
2019-02-15T01:55:22.120Z,27.3
2019-02-15T01:56:12.001Z,27.3
2019-02-15T01:57:02.012Z,27.3
2019-02-15T01:57:52.306Z,27.3
2019-02-15T01:58:42.598Z,27.3
2019-02-15T01:59:32.678Z,27.3
2019-02-15T02:00:21.948Z,27.3
2019-02-15T02:01:11.695Z,27.3
2019-02-15T02:02:02.567Z,27.4
2019-02-15T02:02:52.643Z,27.4
2019-02-15T02:03:42.678Z,27.5
2019-02-15T02:04:32.155Z,27.6
2019-02-15T02:05:22.550Z,27.7
2019-02-15T02:07:02.630Z,27.9
2019-02-15T02:07:53.237Z,28
2019-02-15T02:08:43.585Z,28.1
2019-02-15T02:09:32.830Z,28.3
2019-02-15T02:10:22.341Z,28.4
2019-02-15T02:11:12.404Z,28.5
2019-02-15T02:12:03.042Z,28.6
2019-02-15T02:12:53.602Z,28.7
2019-02-15T02:13:52.692Z,28.9
2019-02-15T02:14:33.477Z,28.9
2019-02-15T02:15:24.068Z,29.1
2019-02-15T02:16:13.262Z,29.2
2019-02-15T02:17:03.867Z,29.3
2019-02-15T02:17:53.976Z,29.4
2019-02-15T02:18:43.740Z,29.6
2019-02-15T02:19:34.309Z,29.7
2019-02-15T02:20:24.087Z,29.8
2019-02-15T02:21:13.912Z,29.9
2019-02-15T02:22:03.962Z,30.1
2019-02-15T02:22:54.589Z,30.2
2019-02-15T02:23:42.964Z,30.3
2019-02-15T02:24:34.109Z,30.4
2019-02-15T02:25:24.219Z,30.5
2019-02-15T02:26:14.220Z,30.6
2019-02-15T02:27:04.371Z,30.8
2019-02-15T02:27:54.343Z,30.9
2019-02-15T02:28:44.668Z,31
2019-02-15T02:29:34.491Z,31.1
2019-02-15T02:30:25.120Z,31.2
2019-02-15T02:31:14.405Z,31.3
2019-02-15T02:32:04.459Z,31.4
2019-02-15T02:32:54.718Z,31.6
2019-02-15T02:33:45.291Z,31.6
2019-02-15T02:34:34.261Z,31.8
2019-02-15T02:35:24.983Z,31.9
2019-02-15T02:36:14.670Z,31.9
2019-02-15T02:37:05.321Z,32.1
2019-02-15T02:37:54.834Z,32.2
2019-02-15T02:38:44.589Z,32.3
2019-02-15T02:39:35.224Z,32.4
2019-02-15T02:40:24.974Z,32.5
2019-02-15T02:41:15.645Z,32.6
2019-02-15T02:42:05.342Z,32.7
2019-02-15T02:42:55.988Z,32.8
2019-02-15T02:43:45.014Z,32.9
2019-02-15T02:44:35.517Z,33
2019-02-15T02:45:25.412Z,33.1
2019-02-15T02:46:15.431Z,33.1
2019-02-15T02:47:05.958Z,33.3
2019-02-15T02:47:55.230Z,33.3
2019-02-15T02:48:46.096Z,33.4
2019-02-15T02:49:35.567Z,33.4
2019-02-15T02:50:25.911Z,33.5
2019-02-15T02:51:15.455Z,33.6
2019-02-15T02:52:06.277Z,33.6
2019-02-15T02:52:56.667Z,33.8
2019-02-15T02:53:46.439Z,33.8
2019-02-15T02:54:36.613Z,33.9
2019-02-15T02:55:26.055Z,33.9
2019-02-15T02:56:16.072Z,33.9
2019-02-15T02:57:06.410Z,34.1
2019-02-15T02:57:56.692Z,34.1
2019-02-15T02:58:46.509Z,34.2
2019-02-15T02:59:36.840Z,34.3
2019-02-15T03:00:37.274Z,34.3
2019-02-15T03:01:17.025Z,34.3
2019-02-15T03:02:06.812Z,34.3
2019-02-15T03:02:56.749Z,34.4
2019-02-15T03:03:47.251Z,34.4
2019-02-15T03:04:36.939Z,34.5
2019-02-15T03:08:10.254Z,34.6
2019-02-15T03:08:59.141Z,34.8
2019-02-15T03:09:49.583Z,34.8
2019-02-15T03:10:39.890Z,34.9
2019-02-15T03:11:29.681Z,34.9
2019-02-15T03:12:19.969Z,34.9
2019-02-15T03:13:10.302Z,35
2019-02-15T03:14:12.020Z,35.1
2019-02-15T03:14:50.748Z,35.1
2019-02-15T03:15:40.189Z,35.2
2019-02-15T03:16:30.264Z,35.3
2019-02-15T03:17:20.088Z,35.3
2019-02-15T03:18:11.221Z,35.4
2019-02-15T03:19:00.709Z,35.4
2019-02-15T03:19:49.668Z,35.4
2019-02-15T03:20:41.138Z,35.5
2019-02-15T03:21:30.077Z,35.5
2019-02-15T03:22:20.943Z,35.6
2019-02-15T03:23:10.863Z,35.6
2019-02-15T03:24:01.605Z,35.6
2019-02-15T03:24:51.508Z,35.6
2019-02-15T03:25:41.506Z,35.7
2019-02-15T03:26:31.260Z,35.8
2019-02-15T03:27:21.105Z,35.8
2019-02-15T03:28:11.464Z,35.8
2019-02-15T03:29:01.491Z,35.8
2019-02-15T03:29:50.926Z,35.9
2019-02-15T03:30:42.041Z,35.9
2019-02-15T03:31:31.906Z,35.9
2019-02-15T03:32:21.902Z,35.9
2019-02-15T03:33:12.594Z,35.9
2019-02-15T03:34:02.156Z,35.9
2019-02-15T03:34:51.286Z,35.9
2019-02-15T03:35:41.065Z,35.9
2019-02-15T03:36:32.074Z,35.9
2019-02-15T03:37:22.253Z,35.9
2019-02-15T03:38:12.453Z,36
2019-02-15T03:39:02.140Z,36
2019-02-15T03:39:52.470Z,36
2019-02-15T03:40:42.513Z,36
2019-02-15T03:41:32.295Z,36
2019-02-15T03:42:22.651Z,36
2019-02-15T03:43:12.746Z,36.1
2019-02-15T03:44:02.632Z,36.1
2019-02-15T03:44:52.823Z,36.1
2019-02-15T03:45:43.202Z,36.1
2019-02-15T03:46:32.395Z,36.1
2019-02-15T03:47:22.927Z,36.1
2019-02-15T03:48:12.468Z,36.2
2019-02-15T03:49:03.166Z,36.2
2019-02-15T03:49:52.614Z,36.2
2019-02-15T03:50:43.189Z,36.2
2019-02-15T03:51:33.028Z,36.3
2019-02-15T03:52:23.335Z,36.3
2019-02-15T03:53:13.374Z,36.3
2019-02-15T03:54:02.898Z,36.3
2019-02-15T03:54:52.639Z,36.3
2019-02-15T03:55:43.319Z,36.3
2019-02-15T03:56:33.314Z,36.3
2019-02-15T03:57:23.448Z,36.3
2019-02-15T03:58:12.629Z,36.3
2019-02-15T03:59:03.242Z,36.3
2019-02-15T03:59:54.148Z,36.3
2019-02-15T04:00:44.183Z,36.3
2019-02-15T04:01:33.750Z,36.3
2019-02-15T04:02:23.232Z,36.3
2019-02-15T04:03:13.249Z,36.3
2019-02-15T04:04:03.546Z,36.3
2019-02-15T04:04:53.907Z,36.3
2019-02-15T04:05:43.994Z,36.3
2019-02-15T04:06:33.804Z,36.3
2019-02-15T04:07:24.231Z,36.3
2019-02-15T04:08:13.851Z,36.3
2019-02-15T04:09:04.520Z,36.3
2019-02-15T04:09:54.536Z,36.3
2019-02-15T04:10:44.272Z,36.3
2019-02-15T04:11:33.421Z,36.3
2019-02-15T04:12:24.726Z,36.3
2019-02-15T04:13:15.018Z,36.3
2019-02-15T04:14:04.828Z,36.3
2019-02-15T04:14:54.336Z,36.3
2019-02-15T04:15:44.620Z,36.3
2019-02-15T04:16:34.975Z,36.3
2019-02-15T04:17:24.520Z,36.3
2019-02-15T04:18:14.852Z,36.3
2019-02-15T04:19:04.570Z,36.3
2019-02-15T04:19:54.609Z,36.2
2019-02-15T04:20:44.704Z,36.2
2019-02-15T04:21:34.792Z,36.3
2019-02-15T04:22:24.818Z,36.2
2019-02-15T04:23:14.860Z,36.2
2019-02-15T04:24:05.641Z,36.2
2019-02-15T04:24:54.959Z,36.2
2019-02-15T04:25:45.228Z,36.2
2019-02-15T04:26:35.654Z,36.2
2019-02-15T04:27:25.432Z,36.2
2019-02-15T04:28:15.586Z,36.2
2019-02-15T04:29:05.613Z,36.2
2019-02-15T04:29:55.351Z,36.2
2019-02-15T04:30:45.751Z,36.2
2019-02-15T04:31:35.874Z,36.2
2019-02-15T04:32:26.326Z,36.1
2019-02-15T04:33:15.339Z,36.1
2019-02-15T04:34:05.609Z,36.1
2019-02-15T04:34:55.659Z,36.2
2019-02-15T04:35:46.041Z,36.1
2019-02-15T04:36:36.094Z,36.2
2019-02-15T04:37:25.616Z,36.1
2019-02-15T04:38:16.458Z,36.1
2019-02-15T04:39:06.234Z,36.1
2019-02-15T04:39:55.999Z,36.1
2019-02-15T04:40:45.826Z,36.1
2019-02-15T04:41:35.981Z,36.1
2019-02-15T04:42:26.473Z,36.1
2019-02-15T04:43:16.216Z,36.1
2019-02-15T04:44:06.857Z,36.1
2019-02-15T04:44:56.353Z,36.1
2019-02-15T04:45:46.136Z,36.1
2019-02-15T04:46:36.871Z,36.1
2019-02-15T04:47:26.321Z,36.1
2019-02-15T04:48:16.870Z,36.1
2019-02-15T04:49:06.675Z,36.1
2019-02-15T04:49:56.790Z,36.1
2019-02-15T04:50:47.147Z,36.1
2019-02-15T04:51:37.391Z,36.1
2019-02-15T04:52:27.466Z,36
2019-02-15T04:53:17.777Z,36.1
2019-02-15T04:54:07.255Z,36
2019-02-15T04:54:57.630Z,36
2019-02-15T04:55:47.662Z,36
2019-02-15T04:56:37.192Z,36
2019-02-15T04:57:26.675Z,36
2019-02-15T04:58:17.237Z,36
2019-02-15T04:59:07.394Z,36
2019-02-15T04:59:57.942Z,36
2019-02-15T05:00:47.739Z,36
2019-02-15T05:01:37.472Z,35.9
2019-02-15T05:02:27.812Z,35.9
2019-02-15T05:03:21.360Z,35.9
2019-02-15T05:04:08.197Z,35.9
2019-02-15T05:04:58.310Z,35.9
2019-02-15T05:05:48.119Z,35.9
2019-02-15T05:06:38.232Z,35.9
2019-02-15T05:07:27.361Z,35.9
2019-02-15T05:08:18.302Z,35.9
2019-02-15T05:09:08.321Z,35.9
2019-02-15T05:09:58.041Z,35.9
2019-02-15T05:10:47.790Z,35.9
2019-02-15T05:11:38.794Z,35.9
2019-02-15T05:12:27.954Z,35.9
2019-02-15T05:13:18.631Z,35.9
2019-02-15T05:14:08.662Z,35.8
2019-02-15T05:14:58.991Z,35.8
2019-02-15T05:15:48.736Z,35.9
2019-02-15T05:16:39.066Z,35.8
2019-02-15T05:17:28.287Z,35.8
2019-02-15T05:18:18.659Z,35.8
2019-02-15T05:19:08.453Z,35.8
2019-02-15T05:19:59.273Z,35.8
2019-02-15T05:20:49.078Z,35.8
2019-02-15T05:21:39.404Z,35.8
2019-02-15T05:22:29.711Z,35.8
2019-02-15T05:23:19.078Z,35.8
2019-02-15T05:24:09.901Z,35.8
2019-02-15T05:24:59.665Z,35.8
2019-02-15T05:25:49.441Z,35.8
2019-02-15T05:26:38.963Z,35.8
2019-02-15T05:27:29.050Z,35.8
2019-02-15T05:28:19.619Z,35.8
2019-02-15T05:29:10.015Z,35.7
2019-02-15T05:30:00.048Z,35.7
2019-02-15T05:30:49.823Z,35.7
2019-02-15T05:31:39.853Z,35.7
2019-02-15T05:32:30.441Z,35.7
2019-02-15T05:33:19.168Z,35.7
2019-02-15T05:34:10.002Z,35.7
2019-02-15T05:35:00.285Z,35.7
2019-02-15T05:35:50.156Z,35.6
2019-02-15T05:36:40.755Z,35.7
2019-02-15T05:37:30.604Z,35.6
2019-02-15T05:38:20.922Z,35.6
2019-02-15T05:39:10.609Z,35.6
2019-02-15T05:40:00.226Z,35.6
2019-02-15T05:40:50.780Z,35.6
2019-02-15T05:41:40.881Z,35.6
2019-02-15T05:42:30.890Z,35.6
2019-02-15T05:43:20.623Z,35.6
2019-02-15T05:44:11.037Z,35.6
2019-02-15T05:45:09.469Z,35.6
2019-02-15T05:45:50.508Z,35.6
2019-02-15T05:46:41.472Z,35.6
2019-02-15T05:47:31.204Z,35.6
2019-02-15T05:48:20.755Z,35.6
2019-02-15T05:49:11.072Z,35.6
2019-02-15T05:50:01.112Z,35.6
2019-02-15T05:50:51.127Z,35.6
2019-02-15T05:51:40.919Z,35.6
2019-02-15T05:52:31.246Z,35.6
2019-02-15T05:53:21.861Z,35.6
2019-02-15T05:54:11.345Z,35.6
2019-02-15T05:55:00.639Z,35.5
2019-02-15T05:55:51.211Z,35.6
2019-02-15T05:56:41.306Z,35.6
2019-02-15T05:57:31.352Z,35.5
2019-02-15T05:58:21.385Z,35.5
2019-02-15T05:59:10.342Z,35.5
2019-02-15T06:00:01.946Z,35.5
2019-02-15T06:00:51.867Z,35.5
2019-02-15T06:01:40.651Z,35.5
2019-02-15T06:02:31.737Z,35.5
2019-02-15T06:03:21.716Z,35.5
2019-02-15T06:04:11.775Z,35.5
2019-02-15T06:06:10.158Z,35.4
2019-02-15T06:06:59.850Z,35.4
2019-02-15T06:07:50.571Z,35.4
2019-02-15T06:08:39.741Z,35.4
2019-02-15T06:09:30.072Z,35.4
2019-02-15T06:10:20.423Z,35.4
2019-02-15T06:11:13.968Z,35.4
2019-02-15T06:12:00.210Z,35.3
2019-02-15T06:12:50.430Z,35.3
2019-02-15T06:13:40.055Z,35.3
2019-02-15T06:14:30.122Z,35.3
2019-02-15T06:15:20.908Z,35.3
2019-02-15T06:16:10.502Z,35.3
2019-02-15T06:17:03.087Z,35.3
2019-02-15T06:17:51.164Z,35.2
2019-02-15T06:18:41.249Z,35.2
2019-02-15T06:19:29.880Z,35.2
2019-02-15T06:20:21.074Z,35.1
2019-02-15T06:21:11.438Z,35.1
2019-02-15T06:22:01.142Z,35.1
2019-02-15T06:22:50.947Z,35.1
2019-02-15T06:23:41.273Z,35.1
2019-02-15T06:24:31.302Z,35
2019-02-15T06:25:20.776Z,35
2019-02-15T06:26:11.409Z,34.9
2019-02-15T06:27:01.507Z,34.9
2019-02-15T06:27:52.011Z,34.9
2019-02-15T06:28:41.666Z,34.8
2019-02-15T06:29:31.405Z,34.8
2019-02-15T06:30:21.822Z,34.8
2019-02-15T06:31:11.034Z,34.8
2019-02-15T06:32:01.819Z,34.7
2019-02-15T06:32:51.914Z,34.7
2019-02-15T06:33:41.419Z,34.6
2019-02-15T06:34:31.419Z,34.6
2019-02-15T06:35:20.958Z,34.6
2019-02-15T06:36:11.911Z,34.5
2019-02-15T06:37:01.900Z,34.5
2019-02-15T06:37:52.239Z,34.4
2019-02-15T06:38:41.738Z,34.4
2019-02-15T06:39:32.053Z,34.4
2019-02-15T06:40:21.849Z,34.4
2019-02-15T06:41:14.389Z,34.4
2019-02-15T06:42:02.551Z,34.4
2019-02-15T06:42:52.945Z,34.4
2019-02-15T06:43:43.003Z,34.4
2019-02-15T06:44:32.392Z,34.4
2019-02-15T06:45:30.743Z,34.4
2019-02-15T06:46:12.847Z,34.3
2019-02-15T06:47:02.551Z,34.3
2019-02-15T06:47:52.956Z,34.3
2019-02-15T06:48:43.003Z,34.3
2019-02-15T06:49:33.036Z,34.2
2019-02-15T06:50:22.353Z,34.2
2019-02-15T06:51:12.924Z,34.1
2019-02-15T06:52:02.990Z,34.1
2019-02-15T06:52:52.721Z,34.1
2019-02-15T06:53:43.073Z,34.1
2019-02-15T06:54:32.845Z,34.1
2019-02-15T06:55:22.872Z,34
2019-02-15T06:56:13.765Z,34
2019-02-15T06:57:03.269Z,34
2019-02-15T06:57:53.603Z,34
2019-02-15T06:58:51.144Z,33.9
2019-02-15T06:59:32.329Z,33.9
2019-02-15T07:00:23.219Z,33.9
2019-02-15T07:01:13.563Z,33.9
2019-02-15T07:02:03.869Z,33.8
2019-02-15T07:02:53.402Z,33.8
2019-02-15T07:03:45.538Z,33.7
2019-02-15T07:06:09.611Z,33.5
2019-02-15T07:06:59.687Z,33.5
2019-02-15T07:07:50.204Z,33.4
2019-02-15T07:08:40.009Z,33.4
2019-02-15T07:09:29.711Z,33.3
2019-02-15T07:10:34.370Z,33.3
2019-02-15T07:11:10.607Z,33.3
2019-02-15T07:11:59.934Z,33.2
2019-02-15T07:12:50.502Z,33.1
2019-02-15T07:13:39.937Z,33.1
2019-02-15T07:14:30.616Z,33.1
2019-02-15T07:15:20.862Z,33.1
2019-02-15T07:16:10.609Z,33
2019-02-15T07:17:00.989Z,33
2019-02-15T07:17:50.986Z,32.9
2019-02-15T07:18:41.024Z,32.9
2019-02-15T07:19:59.979Z,32.9
2019-02-15T07:20:20.391Z,32.9
2019-02-15T07:21:10.956Z,32.8
2019-02-15T07:22:16.196Z,32.8
2019-02-15T07:23:05.839Z,32.7
2019-02-15T07:23:41.561Z,32.8
2019-02-15T07:24:30.278Z,32.8
2019-02-15T07:25:21.258Z,32.6
2019-02-15T07:26:26.405Z,32.6
2019-02-15T07:27:01.543Z,32.6
2019-02-15T07:27:51.549Z,32.5
2019-02-15T07:28:43.680Z,32.4
2019-02-15T07:29:32.050Z,32.3
2019-02-15T07:30:21.611Z,32.2
2019-02-15T07:31:11.153Z,32
2019-02-15T07:32:00.968Z,31.7
2019-02-15T07:32:51.548Z,31.5
2019-02-15T07:33:41.830Z,31
2019-02-15T07:34:45.722Z,30.9
2019-02-15T07:35:36.433Z,30.4
2019-02-15T07:36:13.572Z,30.1
2019-02-15T07:37:52.704Z,29.1
2019-02-15T07:38:41.705Z,28.9
2019-02-15T07:39:47.357Z,28.4
2019-02-15T07:40:21.618Z,27.9
2019-02-15T07:41:12.180Z,27.6
2019-02-15T07:42:16.515Z,27.2
2019-02-15T07:42:52.722Z,26.8
2019-02-15T07:43:42.557Z,26.4
2019-02-15T07:44:32.712Z,26.3
2019-02-15T07:45:24.457Z,25.9
2019-02-15T07:46:27.192Z,25.5
2019-02-15T07:47:02.622Z,25.3
2019-02-15T07:47:53.522Z,25.1
2019-02-15T07:48:42.094Z,24.8
2019-02-15T07:49:33.391Z,24.6
2019-02-15T07:50:23.277Z,24.4
2019-02-15T07:51:14.167Z,24.2
2019-02-15T07:52:17.321Z,23.9
2019-02-15T07:52:57.399Z,23.6
2019-02-15T07:53:48.101Z,23.6
2019-02-15T07:54:37.504Z,23.4
2019-02-15T07:55:27.277Z,23.3
2019-02-15T07:56:16.882Z,23.2
2019-02-15T07:57:07.756Z,23
2019-02-15T07:57:57.481Z,22.9
2019-02-15T07:58:46.994Z,22.8
2019-02-15T07:59:37.038Z,22.6
2019-02-15T08:00:27.721Z,22.5
2019-02-15T08:01:17.781Z,22.4
2019-02-15T08:02:08.310Z,22.3
2019-02-15T08:02:58.161Z,22.2
2019-02-15T08:03:48.136Z,22.1
2019-02-15T08:04:38.479Z,22
2019-02-15T08:05:28.791Z,21.9
2019-02-15T08:06:18.638Z,21.9
2019-02-15T08:07:08.148Z,21.8
2019-02-15T08:07:57.448Z,21.7
2019-02-15T08:08:48.425Z,21.6
2019-02-15T08:09:38.603Z,21.5
2019-02-15T08:10:27.785Z,21.4
2019-02-15T08:11:17.833Z,21.4
2019-02-15T08:12:08.203Z,21.3
2019-02-15T08:12:58.243Z,21.3
2019-02-15T08:13:48.002Z,21.2
2019-02-15T08:15:38.233Z,21.1
2019-02-15T08:16:18.990Z,21
2019-02-15T08:17:08.339Z,20.9
2019-02-15T08:17:58.288Z,20.9
2019-02-15T08:18:49.168Z,20.8
2019-02-15T08:19:39.517Z,20.8
2019-02-15T08:20:28.719Z,20.8
2019-02-15T08:21:18.820Z,20.7
2019-02-15T08:22:09.415Z,20.6
2019-02-15T08:22:59.479Z,20.6
2019-02-15T08:23:49.265Z,20.5
2019-02-15T08:24:38.760Z,20.5
2019-02-15T08:25:29.622Z,20.4
2019-02-15T08:26:19.957Z,20.4
2019-02-15T08:27:09.502Z,20.4
2019-02-15T08:27:59.255Z,20.3
2019-02-15T08:28:49.976Z,20.3
2019-02-15T08:29:39.619Z,20.3
2019-02-15T08:30:29.961Z,20.2
2019-02-15T08:31:19.502Z,20.2
2019-02-15T08:32:10.839Z,20.1
2019-02-15T08:32:59.789Z,20.1
2019-02-15T08:33:50.219Z,20.1
2019-02-15T08:34:40.999Z,20
2019-02-15T08:35:29.974Z,20
2019-02-15T08:36:20.094Z,19.9
2019-02-15T08:37:10.639Z,19.9
2019-02-15T08:38:00.529Z,19.9
2019-02-15T08:38:51.186Z,19.9
2019-02-15T08:39:40.583Z,19.8
2019-02-15T08:40:31.181Z,19.8
2019-02-15T08:41:21.226Z,19.8
2019-02-15T08:42:10.276Z,19.8
2019-02-15T08:43:01.069Z,19.7
2019-02-15T08:43:51.176Z,19.7
2019-02-15T08:44:41.087Z,19.7
2019-02-15T08:45:31.048Z,19.6
2019-02-15T08:46:20.706Z,19.6
2019-02-15T08:47:10.770Z,19.6
2019-02-15T08:48:01.814Z,19.6
2019-02-15T08:48:51.941Z,19.6
2019-02-15T08:49:41.453Z,19.5
2019-02-15T08:50:31.040Z,19.5
2019-02-15T08:51:21.130Z,19.4
2019-02-15T08:52:12.193Z,19.4
2019-02-15T08:53:00.988Z,19.4
2019-02-15T08:53:53.384Z,19.4
2019-02-15T08:54:41.137Z,19.4
2019-02-15T08:55:31.035Z,19.3
2019-02-15T08:56:21.993Z,19.3
2019-02-15T08:57:11.593Z,19.3
2019-02-15T08:58:00.570Z,19.3
2019-02-15T08:58:51.406Z,19.3
2019-02-15T08:59:41.693Z,19.3
2019-02-15T09:00:31.535Z,19.2
2019-02-15T09:01:21.510Z,19.2
2019-02-15T09:02:11.827Z,19.2
2019-02-15T09:03:16.543Z,19.1
2019-02-15T09:03:51.797Z,19.1
2019-02-15T09:04:42.803Z,19.1
2019-02-15T09:05:32.157Z,19.1
2019-02-15T09:06:22.136Z,19.1
2019-02-15T09:07:12.744Z,19.1
2019-02-15T09:08:01.968Z,19.1
2019-02-15T09:08:52.075Z,19
2019-02-15T09:09:42.662Z,19
2019-02-15T09:10:32.392Z,19
2019-02-15T09:11:22.274Z,18.9
2019-02-15T09:12:13.090Z,19
2019-02-15T09:13:03.102Z,18.9
2019-02-15T09:13:52.379Z,18.9
2019-02-15T09:14:42.477Z,18.9
2019-02-15T09:15:32.187Z,18.9
2019-02-15T09:16:23.031Z,18.9
2019-02-15T09:17:12.577Z,18.9
2019-02-15T09:18:02.427Z,18.8
2019-02-15T09:18:53.448Z,18.8
2019-02-15T09:19:43.220Z,18.8
2019-02-15T09:20:33.313Z,18.8
2019-02-15T09:21:23.664Z,18.8
2019-02-15T09:22:13.668Z,18.8
2019-02-15T09:23:04.013Z,18.8
2019-02-15T09:23:54.543Z,18.8
2019-02-15T09:24:44.136Z,18.8
2019-02-15T09:25:34.526Z,18.8
2019-02-15T09:26:23.732Z,18.8
2019-02-15T09:30:34.001Z,18.8
2019-02-15T09:36:24.658Z,18.6
2019-02-15T09:37:14.465Z,18.6
2019-02-15T09:38:05.149Z,18.6
2019-02-15T09:38:55.078Z,18.6
2019-02-15T09:39:44.916Z,18.6
2019-02-15T09:40:34.633Z,18.6
2019-02-15T09:41:24.991Z,18.6
2019-02-15T09:42:15.292Z,18.6
2019-02-15T09:43:05.130Z,18.6
2019-02-15T09:43:55.448Z,18.6
2019-02-15T09:44:45.480Z,18.6
2019-02-15T09:45:37.521Z,18.6
2019-02-15T09:46:25.217Z,18.5
2019-02-15T09:47:15.985Z,18.5
2019-02-15T09:48:05.181Z,18.5
2019-02-15T09:48:55.333Z,18.5
2019-02-15T09:49:50.184Z,18.5
2019-02-15T09:50:36.211Z,18.5
2019-02-15T09:51:25.152Z,18.5
2019-02-15T09:52:15.738Z,18.4
2019-02-15T09:53:05.781Z,18.4
2019-02-15T09:53:56.434Z,18.4
2019-02-15T09:54:46.519Z,17.6
2019-02-15T09:55:36.287Z,20.1
2019-02-15T09:56:26.563Z,20.4
2019-02-15T09:57:16.637Z,23.2
2019-02-15T09:58:05.976Z,25.3
2019-02-15T09:58:55.439Z,26.2
2019-02-15T09:59:46.266Z,26.5
2019-02-15T10:00:36.306Z,25.6
2019-02-15T10:01:26.633Z,23.9
2019-02-15T10:02:15.354Z,23.1
2019-02-15T10:03:06.223Z,22.7
2019-02-15T10:03:59.154Z,22.6
2019-02-15T10:04:46.627Z,22.5
2019-02-15T10:07:09.833Z,22.4
2019-02-15T10:07:59.296Z,22.4
2019-02-15T10:08:49.941Z,22.3
2019-02-15T10:09:42.048Z,22.3
2019-02-15T10:10:30.112Z,22.2
2019-02-15T10:11:19.806Z,22.1
2019-02-15T10:12:10.490Z,22.1
2019-02-15T10:12:59.953Z,22
2019-02-15T10:13:50.495Z,21.9
2019-02-15T10:14:39.495Z,21.8
2019-02-15T10:15:30.665Z,21.8
2019-02-15T10:16:31.367Z,20.4
2019-02-15T10:17:09.425Z,22.3
2019-02-15T10:17:59.523Z,22.6
2019-02-15T10:18:50.610Z,24.4
2019-02-15T10:19:41.075Z,26.1
2019-02-15T10:20:29.141Z,26.8
2019-02-15T10:21:20.783Z,26.8
2019-02-15T10:22:12.994Z,26.4
2019-02-15T10:23:00.912Z,26
2019-02-15T10:23:50.712Z,25.7
2019-02-15T10:24:41.111Z,25.6
2019-02-15T10:25:30.862Z,25.6
2019-02-15T10:26:21.129Z,25.7
2019-02-15T10:27:10.582Z,25.8
2019-02-15T10:28:01.050Z,25.9
2019-02-15T10:28:50.890Z,25.9
2019-02-15T10:29:41.069Z,25.9
2019-02-15T10:30:31.187Z,25.9
2019-02-15T10:31:21.204Z,25.9
2019-02-15T10:32:12.097Z,26
2019-02-15T10:33:01.629Z,26.1
2019-02-15T10:33:51.952Z,26.3
2019-02-15T10:34:41.427Z,26.8
2019-02-15T10:35:31.736Z,27.1
2019-02-15T10:36:23.589Z,27.4
2019-02-15T10:37:11.340Z,27.4
2019-02-15T10:38:01.247Z,27.4
2019-02-15T10:38:51.831Z,27.4
2019-02-15T10:39:41.778Z,27.5
2019-02-15T10:40:32.122Z,27.6
2019-02-15T10:41:22.168Z,27.6
2019-02-15T10:42:26.881Z,27.6
2019-02-15T10:43:01.776Z,27.5
2019-02-15T10:43:52.089Z,27.4
2019-02-15T10:44:42.116Z,27.4
2019-02-15T10:45:31.436Z,27.4
2019-02-15T10:46:22.301Z,27.4
2019-02-15T10:47:29.872Z,27.4
2019-02-15T10:48:02.143Z,27.4
2019-02-15T10:48:52.096Z,27.3
2019-02-15T10:49:42.493Z,27.3
2019-02-15T10:50:32.536Z,27.3
2019-02-15T10:51:22.923Z,27.2
2019-02-15T10:52:12.693Z,27.2
2019-02-15T10:53:02.975Z,27.1
2019-02-15T10:53:52.862Z,27
2019-02-15T10:54:43.080Z,27
2019-02-15T10:55:32.832Z,26.9
2019-02-15T10:56:23.286Z,26.8
2019-02-15T10:57:13.293Z,26.6
2019-02-15T10:58:03.489Z,26.4
2019-02-15T10:58:53.610Z,26.1
2019-02-15T10:59:43.235Z,25.8
2019-02-15T11:00:32.663Z,25.6
2019-02-15T11:01:23.289Z,25.4
2019-02-15T11:02:13.674Z,25.3
2019-02-15T11:03:03.144Z,25.1
2019-02-15T11:03:53.306Z,24.9
2019-02-15T11:04:44.943Z,24.8
2019-02-15T11:05:33.834Z,24.6
2019-02-15T11:06:23.614Z,24.4
2019-02-15T11:07:12.861Z,24.3
2019-02-15T11:08:03.814Z,24.3
2019-02-15T11:08:53.804Z,24.1
2019-02-15T11:09:43.848Z,23.9
2019-02-15T11:10:36.407Z,23.9
2019-02-15T11:11:23.707Z,23.8
2019-02-15T11:12:14.012Z,23.6
2019-02-15T11:13:04.355Z,23.6
2019-02-15T11:13:53.359Z,23.4
2019-02-15T11:14:44.487Z,23.4
2019-02-15T11:15:34.525Z,23.3
2019-02-15T11:16:24.034Z,23.2
2019-02-15T11:17:14.185Z,23.1
2019-02-15T11:18:05.065Z,22.9
2019-02-15T11:18:54.754Z,22.9
2019-02-15T11:19:44.547Z,22.8
2019-02-15T11:20:34.311Z,22.7
2019-02-15T11:21:25.239Z,22.6
2019-02-15T11:22:14.444Z,21.9
2019-02-15T11:23:04.791Z,23.7
2019-02-15T11:23:55.133Z,24.3
2019-02-15T11:24:44.891Z,24.9
2019-02-15T11:25:34.951Z,26.1
2019-02-15T11:26:30.488Z,26.7
2019-02-15T11:27:15.059Z,26.8
2019-02-15T11:28:05.666Z,26.8
2019-02-15T11:28:55.171Z,26.7
2019-02-15T11:29:45.572Z,26.3
2019-02-15T11:30:35.293Z,25.9
2019-02-15T11:31:25.648Z,25.5
2019-02-15T11:32:15.481Z,25.3
2019-02-15T11:33:04.918Z,25.1
2019-02-15T11:33:56.101Z,24.9